Terminal Aerodrome Forecast
Issued by NWS

Home | Current Version | Previous Version | Text Only | Print | Product List | Glossary On
Versions: 1 2 3 4 5 6 7 8 9 10 11 12 13 14 15 16 17 18 19 20 21 22 23 24 25
491
FTUS46 KLOX 250822 AAC
TAFPMD
TAF AMD
KPMD 250822Z 2508/2606 23010KT 3SM HZ SCT015 SCT120
     FM251400 23012KT 4SM FU BKN025 BKN120
     FM252000 23017G25KT 5SM FU BKN035 BKN120
     FM260500 23012KT 5SM BR SCT020 SCT120=

USA.gov is the U.S. government's official web portal to all federal, state and local government web resources and services.